sensor_id;sensor_type;location;lat;lon;timestamp;pressure;altitude;pressure_sealevel;temperature;humidity
10909;BME280;5507;48.548;8.720;2022-11-18T00:01:05;72259.72;;;8.47;nan
10909;BME280;5507;48.548;8.720;2022-11-18T00:03:30;72268.88;;;8.53;nan
10909;BME280;5507;48.548;8.720;2022-11-18T00:05:56;72259.72;;;8.47;nan
10909;BME280;5507;48.548;8.720;2022-11-18T00:08:23;72263.81;;;8.51;nan
10909;BME280;5507;48.548;8.720;2022-11-18T00:10:48;72267.69;;;8.52;nan
10909;BME280;5507;48.548;8.720;2022-11-18T00:13:14;72272.16;;;8.53;nan
10909;BME280;5507;48.548;8.720;2022-11-18T00:16:25;72258.53;;;8.46;nan
10909;BME280;5507;48.548;8.720;2022-11-18T00:18:50;72265.72;;;8.48;nan
10909;BME280;5507;48.548;8.720;2022-11-18T00:21:16;72255.63;;;8.43;nan
10909;BME280;5507;48.548;8.720;2022-11-18T00:23:41;72268.66;;;8.50;nan
10909;BME280;5507;48.548;8.720;2022-11-18T00:26:13;72258.53;;;8.46;nan
10909;BME280;5507;48.548;8.720;2022-11-18T00:28:40;72248.25;;;8.39;nan
10909;BME280;5507;48.548;8.720;2022-11-18T00:31:09;72265.72;;;8.48;nan
10909;BME280;5507;48.548;8.720;2022-11-18T00:33:35;72266.50;;;8.51;nan
10909;BME280;5507;48.548;8.720;2022-11-18T00:36:02;72254.47;;;8.42;nan
10909;BME280;5507;48.548;8.720;2022-11-18T00:38:28;72264.56;;;8.47;nan
10909;BME280;5507;48.548;8.720;2022-11-18T00:41:07;72265.34;;;8.50;nan
10909;BME280;5507;48.548;8.720;2022-11-18T00:43:33;72264.56;;;8.47;nan
10909;BME280;5507;48.548;8.720;2022-11-18T00:45:58;72253.28;;;8.41;nan
10909;BME280;5507;48.548;8.720;2022-11-18T00:48:24;72261.84;;;8.47;nan
10909;BME280;5507;48.548;8.720;2022-11-18T00:50:51;72262.44;;;8.47;nan
10909;BME280;5507;48.548;8.720;2022-11-18T00:53:17;72255.06;;;8.43;nan
10909;BME280;5507;48.548;8.720;2022-11-18T00:55:43;72260.09;;;8.45;nan
10909;BME280;5507;48.548;8.720;2022-11-18T00:58:09;72254.84;;;8.40;nan
10909;BME280;5507;48.548;8.720;2022-11-18T01:00:38;72258.34;;;8.43;nan
10909;BME280;5507;48.548;8.720;2022-11-18T01:03:04;72247.25;;;8.34;nan
10909;BME280;5507;48.548;8.720;2022-11-18T01:05:29;72253.09;;;8.39;nan
10909;BME280;5507;48.548;8.720;2022-11-18T01:07:54;72255.59;;;8.36;nan
10909;BME280;5507;48.548;8.720;2022-11-18T01:10:20;72247.84;;;8.34;nan
10909;BME280;5507;48.548;8.720;2022-11-18T01:12:45;72247.06;;;8.31;nan
10909;BME280;5507;48.548;8.720;2022-11-18T01:15:28;72249.00;;;8.35;nan
10909;BME280;5507;48.548;8.720;2022-11-18T01:17:54;72244.16;;;8.29;nan
10909;BME280;5507;48.548;8.720;2022-11-18T01:20:19;72251.13;;;8.35;nan
10909;BME280;5507;48.548;8.720;2022-11-18T01:22:44;72246.88;;;8.36;nan
10909;BME280;5507;48.548;8.720;2022-11-18T01:25:10;72249.97;;;8.34;nan
10909;BME280;5507;48.548;8.720;2022-11-18T01:27:35;72243.16;;;8.30;nan
10909;BME280;5507;48.548;8.720;2022-11-18T01:30:00;72242.59;;;8.30;nan
10909;BME280;5507;48.548;8.720;2022-11-18T01:32:27;72252.50;;;8.38;nan
10909;BME280;5507;48.548;8.720;2022-11-18T01:34:52;72249.00;;;8.35;nan
10909;BME280;5507;48.548;8.720;2022-11-18T01:37:18;72247.84;;;8.34;nan
10909;BME280;5507;48.548;8.720;2022-11-18T01:39:43;72247.84;;;8.34;nan
10909;BME280;5507;48.548;8.720;2022-11-18T01:42:13;72243.38;;;8.33;nan
10909;BME280;5507;48.548;8.720;2022-11-18T01:47:41;72248.59;;;8.30;nan
10909;BME280;5507;48.548;8.720;2022-11-18T01:50:08;72242.38;;;8.27;nan
10909;BME280;5507;48.548;8.720;2022-11-18T01:52:34;72243.75;;;8.31;nan
10909;BME280;5507;48.548;8.720;2022-11-18T01:55:05;72239.28;;;8.29;nan
10909;BME280;5507;48.548;8.720;2022-11-18T01:57:32;72244.16;;;8.29;nan
10909;BME280;5507;48.548;8.720;2022-11-18T02:00:00;72236.16;;;8.24;nan
10909;BME280;5507;48.548;8.720;2022-11-18T02:02:30;72223.28;;;8.13;nan
10909;BME280;5507;48.548;8.720;2022-11-18T02:04:57;72234.19;;;8.20;nan
10909;BME280;5507;48.548;8.720;2022-11-18T02:07:23;72232.84;;;8.24;nan
10909;BME280;5507;48.548;8.720;2022-11-18T02:09:50;72237.31;;;8.25;nan
10909;BME280;5507;48.548;8.720;2022-11-18T02:12:17;72233.22;;;8.22;nan
10909;BME280;5507;48.548;8.720;2022-11-18T02:14:44;72229.13;;;8.18;nan
10909;BME280;5507;48.548;8.720;2022-11-18T02:28:30;72219.44;;;8.12;nan
10909;BME280;5507;48.548;8.720;2022-11-18T02:31:07;72222.53;;;8.17;nan
10909;BME280;5507;48.548;8.720;2022-11-18T02:36:17;72225.06;;;8.15;nan
10909;BME280;5507;48.548;8.720;2022-11-18T02:38:47;72226.81;;;8.16;nan
10909;BME280;5507;48.548;8.720;2022-11-18T02:41:17;72229.53;;;8.16;nan
10909;BME280;5507;48.548;8.720;2022-11-18T02:43:51;72208.34;;;8.03;nan
10909;BME280;5507;48.548;8.720;2022-11-18T02:46:23;72213.97;;;8.05;nan
10909;BME280;5507;48.548;8.720;2022-11-18T02:48:51;72221.56;;;8.12;nan
10909;BME280;5507;48.548;8.720;2022-11-18T02:51:23;72214.53;;;8.06;nan
10909;BME280;5507;48.548;8.720;2022-11-18T02:53:50;72215.91;;;8.09;nan
10909;BME280;5507;48.548;8.720;2022-11-18T02:56:17;72206.00;;;8.01;nan
10909;BME280;5507;48.548;8.720;2022-11-18T02:58:44;72209.88;;;8.02;nan
10909;BME280;5507;48.548;8.720;2022-11-18T03:01:19;72212.59;;;8.02;nan
10909;BME280;5507;48.548;8.720;2022-11-18T03:03:46;72200.75;;;7.96;nan
10909;BME280;5507;48.548;8.720;2022-11-18T03:06:33;72206.00;;;8.01;nan
10909;BME280;5507;48.548;8.720;2022-11-18T03:09:02;72210.47;;;8.02;nan
10909;BME280;5507;48.548;8.720;2022-11-18T03:17:00;72211.44;;;8.01;nan
10909;BME280;5507;48.548;8.720;2022-11-18T03:24:38;72215.13;;;8.06;nan
10909;BME280;5507;48.548;8.720;2022-11-18T03:27:20;72217.47;;;8.08;nan
10909;BME280;5507;48.548;8.720;2022-11-18T03:30:02;72220.19;;;8.08;nan
10909;BME280;5507;48.548;8.720;2022-11-18T03:32:30;72218.63;;;8.09;nan
10909;BME280;5507;48.548;8.720;2022-11-18T03:35:04;72202.50;;;7.97;nan
10909;BME280;5507;48.548;8.720;2022-11-18T03:37:33;72197.63;;;7.91;nan
10909;BME280;5507;48.548;8.720;2022-11-18T03:40:07;72208.50;;;7.98;nan
10909;BME280;5507;48.548;8.720;2022-11-18T03:42:39;72206.97;;;7.99;nan
10909;BME280;5507;48.548;8.720;2022-11-18T03:45:11;72213.75;;;8.03;nan
10909;BME280;5507;48.548;8.720;2022-11-18T03:47:41;72205.59;;;7.95;nan
10909;BME280;5507;48.548;8.720;2022-11-18T03:50:19;72206.00;;;8.01;nan
10909;BME280;5507;48.548;8.720;2022-11-18T03:52:47;72197.63;;;7.91;nan
10909;BME280;5507;48.548;8.720;2022-11-18T03:55:18;72200.34;;;7.91;nan
10909;BME280;5507;48.548;8.720;2022-11-18T03:57:59;72195.28;;;7.89;nan
10909;BME280;5507;48.548;8.720;2022-11-18T04:00:32;72190.84;;;7.87;nan
10909;BME280;5507;48.548;8.720;2022-11-18T04:02:59;72194.91;;;7.91;nan
10909;BME280;5507;48.548;8.720;2022-11-18T04:05:25;72194.91;;;7.91;nan
10909;BME280;5507;48.548;8.720;2022-11-18T04:07:58;72194.50;;;7.86;nan
10909;BME280;5507;48.548;8.720;2022-11-18T04:10:34;72195.28;;;7.89;nan
10909;BME280;5507;48.548;8.720;2022-11-18T04:13:06;72192.38;;;7.86;nan
10909;BME280;5507;48.548;8.720;2022-11-18T04:15:36;72182.88;;;7.83;nan
10909;BME280;5507;48.548;8.720;2022-11-18T04:18:02;72197.44;;;7.88;nan
10909;BME280;5507;48.548;8.720;2022-11-18T04:20:27;72183.81;;;7.81;nan
10909;BME280;5507;48.548;8.720;2022-11-18T04:22:53;72184.59;;;7.77;nan
10909;BME280;5507;48.548;8.720;2022-11-18T04:25:18;72176.63;;;7.73;nan
10909;BME280;5507;48.548;8.720;2022-11-18T04:27:43;72177.19;;;7.73;nan
10909;BME280;5507;48.548;8.720;2022-11-18T04:30:09;72170.81;;;7.68;nan
10909;BME280;5507;48.548;8.720;2022-11-18T04:32:35;72170.22;;;7.67;nan
10909;BME280;5507;48.548;8.720;2022-11-18T04:35:01;72173.13;;;7.70;nan
10909;BME280;5507;48.548;8.720;2022-11-18T04:37:26;72170.81;;;7.68;nan
10909;BME280;5507;48.548;8.720;2022-11-18T04:39:51;72160.50;;;7.61;nan
10909;BME280;5507;48.548;8.720;2022-11-18T04:42:17;72164.97;;;7.63;nan
10909;BME280;5507;48.548;8.720;2022-11-18T04:44:42;72160.50;;;7.61;nan
10909;BME280;5507;48.548;8.720;2022-11-18T04:47:08;72167.88;;;7.65;nan
10909;BME280;5507;48.548;8.720;2022-11-18T04:49:34;72167.66;;;7.63;nan
10909;BME280;5507;48.548;8.720;2022-11-18T04:52:00;72162.63;;;7.61;nan
10909;BME280;5507;48.548;8.720;2022-11-18T04:54:26;72162.06;;;7.60;nan
10909;BME280;5507;48.548;8.720;2022-11-18T04:56:52;72157.00;;;7.58;nan
10909;BME280;5507;48.548;8.720;2022-11-18T04:59:23;72157.75;;;7.54;nan
10909;BME280;5507;48.548;8.720;2022-11-18T05:01:49;72156.00;;;7.53;nan
10909;BME280;5507;48.548;8.720;2022-11-18T05:04:20;72148.25;;;7.50;nan
10909;BME280;5507;48.548;8.720;2022-11-18T05:06:46;72149.44;;;7.52;nan
10909;BME280;5507;48.548;8.720;2022-11-18T05:09:12;72151.75;;;7.54;nan
10909;BME280;5507;48.548;8.720;2022-11-18T05:11:38;72146.88;;;7.47;nan
10909;BME280;5507;48.548;8.720;2022-11-18T05:14:27;72145.50;;;7.43;nan
10909;BME280;5507;48.548;8.720;2022-11-18T05:16:54;72139.28;;;7.40;nan
10909;BME280;5507;48.548;8.720;2022-11-18T05:19:20;72137.16;;;7.41;nan
10909;BME280;5507;48.548;8.720;2022-11-18T05:21:45;72139.28;;;7.40;nan
10909;BME280;5507;48.548;8.720;2022-11-18T05:24:10;72146.50;;;7.49;nan
10909;BME280;5507;48.548;8.720;2022-11-18T05:26:36;72145.91;;;7.48;nan
10909;BME280;5507;48.548;8.720;2022-11-18T05:29:01;72148.63;;;7.48;nan
10909;BME280;5507;48.548;8.720;2022-11-18T05:31:26;72147.47;;;7.47;nan
10909;BME280;5507;48.548;8.720;2022-11-18T05:33:52;72143.59;;;7.46;nan
10909;BME280;5507;48.548;8.720;2022-11-18T05:36:19;72141.25;;;7.44;nan
10909;BME280;5507;48.548;8.720;2022-11-18T05:38:45;72149.78;;;7.49;nan
10909;BME280;5507;48.548;8.720;2022-11-18T05:41:10;72141.81;;;7.45;nan
10909;BME280;5507;48.548;8.720;2022-11-18T05:43:56;72143.00;;;7.46;nan
10909;BME280;5507;48.548;8.720;2022-11-18T05:46:22;72143.38;;;7.44;nan
10909;BME280;5507;48.548;8.720;2022-11-18T05:48:47;72133.84;;;7.33;nan
10909;BME280;5507;48.548;8.720;2022-11-18T05:51:12;72132.31;;;7.34;nan
10909;BME280;5507;48.548;8.720;2022-11-18T05:53:37;72134.06;;;7.36;nan
10909;BME280;5507;48.548;8.720;2022-11-18T05:56:30;72143.38;;;7.44;nan
10909;BME280;5507;48.548;8.720;2022-11-18T05:58:57;72136.22;;;7.42;nan
10909;BME280;5507;48.548;8.720;2022-11-18T06:03:57;72136.56;;;7.40;nan
10909;BME280;5507;48.548;8.720;2022-11-18T06:06:23;72135.44;;;7.39;nan
10909;BME280;5507;48.548;8.720;2022-11-18T06:09:00;72139.28;;;7.40;nan
10909;BME280;5507;48.548;8.720;2022-11-18T06:11:27;72138.72;;;7.40;nan
10909;BME280;5507;48.548;8.720;2022-11-18T06:14:00;72142.59;;;7.41;nan
10909;BME280;5507;48.548;8.720;2022-11-18T06:16:28;72142.00;;;7.40;nan
10909;BME280;5507;48.548;8.720;2022-11-18T06:18:55;72129.00;;;7.34;nan
10909;BME280;5507;48.548;8.720;2022-11-18T06:21:21;72135.59;;;7.35;nan
10909;BME280;5507;48.548;8.720;2022-11-18T06:23:47;72127.84;;;7.33;nan
10909;BME280;5507;48.548;8.720;2022-11-18T06:26:14;72121.03;;;7.29;nan
10909;BME280;5507;48.548;8.720;2022-11-18T06:28:43;72119.47;;;7.23;nan
10909;BME280;5507;48.548;8.720;2022-11-18T06:31:09;72117.13;;;7.21;nan
10909;BME280;5507;48.548;8.720;2022-11-18T06:33:34;72116.53;;;7.21;nan
10909;BME280;5507;48.548;8.720;2022-11-18T06:35:59;72122.19;;;7.23;nan
10909;BME280;5507;48.548;8.720;2022-11-18T06:38:25;72122.59;;;7.28;nan
10909;BME280;5507;48.548;8.720;2022-11-18T06:40:50;72117.91;;;7.24;nan
10909;BME280;5507;48.548;8.720;2022-11-18T06:43:16;72121.59;;;7.23;nan
10909;BME280;5507;48.548;8.720;2022-11-18T06:46:02;72117.72;;;7.22;nan
10909;BME280;5507;48.548;8.720;2022-11-18T06:48:46;72118.09;;;7.20;nan
10909;BME280;5507;48.548;8.720;2022-11-18T06:51:12;72123.72;;;7.22;nan
10909;BME280;5507;48.548;8.720;2022-11-18T06:53:38;72118.88;;;7.23;nan
10909;BME280;5507;48.548;8.720;2022-11-18T06:56:04;72117.72;;;7.22;nan
10909;BME280;5507;48.548;8.720;2022-11-18T06:58:30;72118.88;;;7.23;nan
10909;BME280;5507;48.548;8.720;2022-11-18T07:00:55;72112.09;;;7.19;nan
10909;BME280;5507;48.548;8.720;2022-11-18T07:03:20;72113.25;;;7.20;nan
10909;BME280;5507;48.548;8.720;2022-11-18T07:05:46;72116.75;;;7.23;nan
10909;BME280;5507;48.548;8.720;2022-11-18T07:08:11;72126.47;;;7.29;nan
10909;BME280;5507;48.548;8.720;2022-11-18T07:10:36;72133.84;;;7.33;nan
10909;BME280;5507;48.548;8.720;2022-11-18T07:13:02;72134.06;;;7.36;nan
10909;BME280;5507;48.548;8.720;2022-11-18T07:15:27;72130.75;;;7.35;nan
10909;BME280;5507;48.548;8.720;2022-11-18T07:17:52;72141.47;;;7.47;nan
10909;BME280;5507;48.548;8.720;2022-11-18T07:20:17;72148.84;;;7.51;nan
10909;BME280;5507;48.548;8.720;2022-11-18T07:22:43;72156.41;;;7.58;nan
10909;BME280;5507;48.548;8.720;2022-11-18T07:25:08;72158.53;;;7.57;nan
10909;BME280;5507;48.548;8.720;2022-11-18T07:27:34;72170.00;;;7.65;nan
10909;BME280;5507;48.548;8.720;2022-11-18T07:29:59;72175.66;;;7.74;nan
10909;BME280;5507;48.548;8.720;2022-11-18T07:32:24;72169.81;;;7.69;nan
10909;BME280;5507;48.548;8.720;2022-11-18T07:34:50;72185.38;;;7.80;nan
10909;BME280;5507;48.548;8.720;2022-11-18T07:37:15;72185.19;;;7.85;nan
10909;BME280;5507;48.548;8.720;2022-11-18T07:39:40;72204.63;;;7.97;nan
10909;BME280;5507;48.548;8.720;2022-11-18T07:42:08;72208.72;;;8.01;nan
10909;BME280;5507;48.548;8.720;2022-11-18T07:44:33;72201.91;;;7.97;nan
10909;BME280;5507;48.548;8.720;2022-11-18T07:46:58;72201.34;;;7.96;nan
10909;BME280;5507;48.548;8.720;2022-11-18T07:49:24;72203.31;;;8.01;nan
10909;BME280;5507;48.548;8.720;2022-11-18T07:51:49;72223.88;;;8.14;nan
10909;BME280;5507;48.548;8.720;2022-11-18T07:54:14;72237.88;;;8.26;nan
10909;BME280;5507;48.548;8.720;2022-11-18T07:56:41;72248.41;;;8.35;nan
10909;BME280;5507;48.548;8.720;2022-11-18T07:59:07;72262.25;;;8.45;nan
10909;BME280;5507;48.548;8.720;2022-11-18T08:01:32;72253.69;;;8.39;nan
10909;BME280;5507;48.548;8.720;2022-11-18T08:04:04;72262.63;;;8.50;nan
10909;BME280;5507;48.548;8.720;2022-11-18T08:06:31;72268.28;;;8.52;nan
10909;BME280;5507;48.548;8.720;2022-11-18T08:08:57;72282.28;;;8.64;nan
10909;BME280;5507;48.548;8.720;2022-11-18T08:11:22;72293.75;;;8.72;nan
10909;BME280;5507;48.548;8.720;2022-11-18T08:13:48;72291.63;;;8.72;nan
10909;BME280;5507;48.548;8.720;2022-11-18T08:16:16;72293.00;;;8.76;nan
10909;BME280;5507;48.548;8.720;2022-11-18T08:18:41;72279.56;;;8.64;nan
10909;BME280;5507;48.548;8.720;2022-11-18T08:21:07;72277.63;;;8.60;nan
10909;BME280;5507;48.548;8.720;2022-11-18T08:23:32;72292.22;;;8.73;nan
10909;BME280;5507;48.548;8.720;2022-11-18T08:26:06;72297.66;;;8.80;nan
10909;BME280;5507;48.548;8.720;2022-11-18T08:28:32;72315.94;;;8.91;nan
10909;BME280;5507;48.548;8.720;2022-11-18T08:30:59;72317.13;;;8.92;nan
10909;BME280;5507;48.548;8.720;2022-11-18T08:33:25;72332.50;;;9.08;nan
10909;BME280;5507;48.548;8.720;2022-11-18T08:35:50;72340.31;;;9.17;nan
10909;BME280;5507;48.548;8.720;2022-11-18T08:38:16;72331.16;;;9.11;nan
10909;BME280;5507;48.548;8.720;2022-11-18T08:40:44;72348.28;;;9.21;nan
10909;BME280;5507;48.548;8.720;2022-11-18T08:43:10;72339.53;;;9.14;nan
10909;BME280;5507;48.548;8.720;2022-11-18T08:45:37;72373.19;;;9.41;nan
10909;BME280;5507;48.548;8.720;2022-11-18T08:48:03;72359.38;;;9.31;nan
10909;BME280;5507;48.548;8.720;2022-11-18T08:50:28;72376.91;;;9.46;nan
10909;BME280;5507;48.548;8.720;2022-11-18T08:52:54;72395.97;;;9.60;nan
10909;BME280;5507;48.548;8.720;2022-11-18T08:55:19;72412.53;;;9.77;nan
10909;BME280;5507;48.548;8.720;2022-11-18T08:57:46;72410.59;;;9.73;nan
10909;BME280;5507;48.548;8.720;2022-11-18T09:00:12;72414.50;;;9.81;nan
10909;BME280;5507;48.548;8.720;2022-11-18T09:02:38;72425.59;;;9.91;nan
10909;BME280;5507;48.548;8.720;2022-11-18T09:05:03;72434.16;;;9.96;nan
10909;BME280;5507;48.548;8.720;2022-11-18T09:07:29;72437.47;;;9.96;nan
10909;BME280;5507;48.548;8.720;2022-11-18T09:09:54;72442.34;;;10.03;nan
10909;BME280;5507;48.548;8.720;2022-11-18T09:12:19;72442.72;;;10.01;nan
10909;BME280;5507;48.548;8.720;2022-11-18T09:14:44;72460.50;;;10.18;nan
10909;BME280;5507;48.548;8.720;2022-11-18T09:17:10;72469.63;;;10.24;nan
10909;BME280;5507;48.548;8.720;2022-11-18T09:19:36;72474.53;;;10.31;nan
10909;BME280;5507;48.548;8.720;2022-11-18T09:22:03;72466.31;;;10.23;nan
10909;BME280;5507;48.548;8.720;2022-11-18T09:24:28;72450.72;;;10.12;nan
10909;BME280;5507;48.548;8.720;2022-11-18T09:26:53;72443.31;;;10.01;nan
10909;BME280;5507;48.548;8.720;2022-11-18T09:29:19;72432.19;;;9.92;nan
10909;BME280;5507;48.548;8.720;2022-11-18T09:31:49;72425.41;;;9.88;nan
10909;BME280;5507;48.548;8.720;2022-11-18T09:34:14;72424.03;;;9.84;nan
10909;BME280;5507;48.548;8.720;2022-11-18T09:36:39;72423.66;;;9.87;nan
10909;BME280;5507;48.548;8.720;2022-11-18T09:39:05;72420.53;;;9.81;nan
10909;BME280;5507;48.548;8.720;2022-11-18T09:41:41;72412.53;;;9.77;nan
10909;BME280;5507;48.548;8.720;2022-11-18T09:47:24;72436.69;;;10.00;nan
10909;BME280;5507;48.548;8.720;2022-11-18T09:49:53;72433.97;;;10.00;nan
10909;BME280;5507;48.548;8.720;2022-11-18T09:52:22;72459.47;;;10.13;nan
10909;BME280;5507;48.548;8.720;2022-11-18T09:54:49;72466.72;;;10.21;nan
10909;BME280;5507;48.548;8.720;2022-11-18T09:57:37;72466.31;;;10.23;nan
10909;BME280;5507;48.548;8.720;2022-11-18T10:00:27;72472.56;;;10.26;nan
10909;BME280;5507;48.548;8.720;2022-11-18T10:03:06;72469.84;;;10.26;nan
10909;BME280;5507;48.548;8.720;2022-11-18T10:05:46;72496.75;;;10.50;nan
10909;BME280;5507;48.548;8.720;2022-11-18T10:16:25;73026.97;;;15.07;nan
10909;BME280;5507;48.548;8.720;2022-11-18T10:24:18;73141.47;;;15.99;nan
10909;BME280;5507;48.548;8.720;2022-11-18T10:26:44;73047.72;;;15.20;nan
10909;BME280;5507;48.548;8.720;2022-11-18T10:29:10;73060.81;;;15.34;nan
10909;BME280;5507;48.548;8.720;2022-11-18T10:31:37;73050.63;;;15.23;nan
10909;BME280;5507;48.548;8.720;2022-11-18T10:34:03;73112.31;;;15.76;nan
10909;BME280;5507;48.548;8.720;2022-11-18T10:36:31;73134.03;;;15.95;nan
10909;BME280;5507;48.548;8.720;2022-11-18T10:39:06;73275.47;;;17.14;nan
10909;BME280;5507;48.548;8.720;2022-11-18T10:41:50;73138.94;;;16.01;nan
10909;BME280;5507;48.548;8.720;2022-11-18T10:44:40;73215.13;;;16.64;nan
10909;BME280;5507;48.548;8.720;2022-11-18T10:47:19;73349.00;;;17.77;nan
10909;BME280;5507;48.548;8.720;2022-11-18T10:49:45;73446.06;;;18.60;nan
10909;BME280;5507;48.548;8.720;2022-11-18T10:52:12;73313.88;;;17.49;nan
10909;BME280;5507;48.548;8.720;2022-11-18T10:54:38;73099.97;;;15.65;nan
10909;BME280;5507;48.548;8.720;2022-11-18T10:59:40;72911.19;;;14.05;nan
10909;BME280;5507;48.548;8.720;2022-11-18T11:04:56;72753.88;;;12.67;nan
10909;BME280;5507;48.548;8.720;2022-11-18T11:07:36;72842.97;;;13.44;nan
10909;BME280;5507;48.548;8.720;2022-11-18T11:12:41;72911.19;;;14.05;nan
10909;BME280;5507;48.548;8.720;2022-11-18T11:18:21;73185.13;;;16.39;nan
10909;BME280;5507;48.548;8.720;2022-11-18T11:21:13;73277.22;;;17.15;nan
10909;BME280;5507;48.548;8.720;2022-11-18T11:23:41;73424.47;;;18.44;nan
10909;BME280;5507;48.548;8.720;2022-11-18T11:26:28;73536.56;;;19.36;nan
10909;BME280;5507;48.548;8.720;2022-11-18T11:31:46;73704.69;;;20.82;nan
10909;BME280;5507;48.548;8.720;2022-11-18T11:37:04;73434.13;;;18.48;nan
10909;BME280;5507;48.548;8.720;2022-11-18T11:39:50;73215.72;;;16.65;nan
10909;BME280;5507;48.548;8.720;2022-11-18T11:56:31;72975.91;;;14.63;nan
10909;BME280;5507;48.548;8.720;2022-11-18T11:59:06;72970.25;;;14.54;nan
10909;BME280;5507;48.548;8.720;2022-11-18T12:04:36;72946.75;;;14.33;nan
10909;BME280;5507;48.548;8.720;2022-11-18T12:07:06;73007.00;;;14.90;nan
10909;BME280;5507;48.548;8.720;2022-11-18T12:10:01;72934.03;;;14.25;nan
10909;BME280;5507;48.548;8.720;2022-11-18T12:13:00;72851.97;;;13.54;nan
10909;BME280;5507;48.548;8.720;2022-11-18T12:18:32;72806.44;;;13.10;nan
10909;BME280;5507;48.548;8.720;2022-11-18T12:21:00;72767.34;;;12.79;nan
10909;BME280;5507;48.548;8.720;2022-11-18T12:23:27;72812.09;;;13.20;nan
10909;BME280;5507;48.548;8.720;2022-11-18T12:25:55;72839.06;;;13.43;nan
10909;BME280;5507;48.548;8.720;2022-11-18T12:28:29;72839.66;;;13.43;nan
10909;BME280;5507;48.548;8.720;2022-11-18T12:33:57;72785.72;;;12.97;nan
10909;BME280;5507;48.548;8.720;2022-11-18T12:36:33;72762.28;;;12.77;nan
10909;BME280;5507;48.548;8.720;2022-11-18T12:44:33;72736.50;;;12.54;nan
10909;BME280;5507;48.548;8.720;2022-11-18T12:47:00;72705.06;;;12.23;nan
10909;BME280;5507;48.548;8.720;2022-11-18T12:51:56;72625.06;;;11.56;nan
10909;BME280;5507;48.548;8.720;2022-11-18T12:54:29;72628.16;;;11.61;nan
10909;BME280;5507;48.548;8.720;2022-11-18T12:56:59;72655.50;;;11.82;nan
10909;BME280;5507;48.548;8.720;2022-11-18T12:59:34;72671.13;;;12.00;nan
10909;BME280;5507;48.548;8.720;2022-11-18T13:04:35;72654.13;;;11.86;nan
10909;BME280;5507;48.548;8.720;2022-11-18T13:07:02;72642.81;;;11.74;nan
10909;BME280;5507;48.548;8.720;2022-11-18T13:09:31;72632.84;;;11.65;nan
10909;BME280;5507;48.548;8.720;2022-11-18T13:11:59;72648.09;;;11.78;nan
10909;BME280;5507;48.548;8.720;2022-11-18T13:15:00;72644.00;;;11.75;nan
10909;BME280;5507;48.548;8.720;2022-11-18T13:17:39;72618.03;;;11.57;nan
10909;BME280;5507;48.548;8.720;2022-11-18T13:20:33;72619.38;;;11.53;nan
10909;BME280;5507;48.548;8.720;2022-11-18T13:26:03;72635.00;;;11.64;nan
10909;BME280;5507;48.548;8.720;2022-11-18T13:28:37;72658.44;;;11.85;nan
10909;BME280;5507;48.548;8.720;2022-11-18T13:33:37;72651.03;;;11.81;nan
10909;BME280;5507;48.548;8.720;2022-11-18T13:36:15;72618.22;;;11.52;nan
10909;BME280;5507;48.548;8.720;2022-11-18T13:39:41;72637.91;;;11.67;nan
10909;BME280;5507;48.548;8.720;2022-11-18T13:41:38;72629.13;;;11.59;nan
10909;BME280;5507;48.548;8.720;2022-11-18T13:44:27;72595.97;;;11.33;nan
10909;BME280;5507;48.548;8.720;2022-11-18T13:46:58;72587.78;;;11.26;nan
10909;BME280;5507;48.548;8.720;2022-11-18T13:52:34;72635.19;;;11.67;nan
10909;BME280;5507;48.548;8.720;2022-11-18T13:55:07;72651.81;;;11.84;nan
10909;BME280;5507;48.548;8.720;2022-11-18T13:57:36;72611.19;;;11.46;nan
10909;BME280;5507;48.548;8.720;2022-11-18T14:00:05;72571.41;;;11.12;nan
10909;BME280;5507;48.548;8.720;2022-11-18T14:02:31;72540.03;;;10.87;nan
10909;BME280;5507;48.548;8.720;2022-11-18T14:05:02;72495.97;;;10.47;nan
10909;BME280;5507;48.548;8.720;2022-11-18T14:07:30;72480.16;;;10.33;nan
10909;BME280;5507;48.548;8.720;2022-11-18T14:12:32;72476.44;;;10.27;nan
10909;BME280;5507;48.548;8.720;2022-11-18T14:15:21;72453.44;;;10.12;nan
10909;BME280;5507;48.548;8.720;2022-11-18T14:17:57;72449.19;;;10.13;nan
10909;BME280;5507;48.548;8.720;2022-11-18T14:20:25;72451.50;;;10.08;nan
10909;BME280;5507;48.548;8.720;2022-11-18T14:22:55;72446.44;;;10.06;nan
10909;BME280;5507;48.548;8.720;2022-11-18T14:25:28;72419.94;;;9.88;nan
10909;BME280;5507;48.548;8.720;2022-11-18T14:30:41;72400.06;;;9.64;nan
10909;BME280;5507;48.548;8.720;2022-11-18T14:33:20;72378.66;;;9.48;nan
10909;BME280;5507;48.548;8.720;2022-11-18T14:35:58;72359.59;;;9.33;nan
10909;BME280;5507;48.548;8.720;2022-11-18T14:38:40;72343.59;;;9.17;nan
10909;BME280;5507;48.548;8.720;2022-11-18T14:41:09;72342.03;;;9.18;nan
10909;BME280;5507;48.548;8.720;2022-11-18T14:43:35;72351.00;;;9.21;nan
10909;BME280;5507;48.548;8.720;2022-11-18T14:46:04;72351.00;;;9.21;nan
10909;BME280;5507;48.548;8.720;2022-11-18T14:48:30;72329.78;;;9.08;nan
10909;BME280;5507;48.548;8.720;2022-11-18T14:50:56;72331.72;;;9.05;nan
10909;BME280;5507;48.548;8.720;2022-11-18T14:53:21;72319.66;;;8.97;nan
10909;BME280;5507;48.548;8.720;2022-11-18T14:55:49;72316.53;;;8.92;nan
10909;BME280;5507;48.548;8.720;2022-11-18T14:58:15;72299.81;;;8.79;nan
10909;BME280;5507;48.548;8.720;2022-11-18T15:00:42;72284.84;;;8.69;nan
10909;BME280;5507;48.548;8.720;2022-11-18T15:03:08;72284.41;;;8.64;nan
10909;BME280;5507;48.548;8.720;2022-11-18T15:05:34;72279.16;;;8.59;nan
10909;BME280;5507;48.548;8.720;2022-11-18T15:07:59;72270.59;;;8.54;nan
10909;BME280;5507;48.548;8.720;2022-11-18T15:10:25;72257.75;;;8.43;nan
10909;BME280;5507;48.548;8.720;2022-11-18T15:12:50;72259.88;;;8.42;nan
10909;BME280;5507;48.548;8.720;2022-11-18T15:15:15;72257.75;;;8.43;nan
10909;BME280;5507;48.548;8.720;2022-11-18T15:17:41;72244.94;;;8.32;nan
10909;BME280;5507;48.548;8.720;2022-11-18T15:20:11;72235.56;;;8.24;nan
10909;BME280;5507;48.548;8.720;2022-11-18T15:22:38;72243.53;;;8.28;nan
10909;BME280;5507;48.548;8.720;2022-11-18T15:25:04;72234.41;;;8.23;nan
10909;BME280;5507;48.548;8.720;2022-11-18T15:27:29;72221.16;;;8.14;nan
10909;BME280;5507;48.548;8.720;2022-11-18T15:29:55;72216.31;;;8.07;nan
10909;BME280;5507;48.548;8.720;2022-11-18T15:32:20;72207.34;;;7.97;nan
10909;BME280;5507;48.548;8.720;2022-11-18T15:34:45;72206.00;;;8.01;nan
10909;BME280;5507;48.548;8.720;2022-11-18T15:37:11;72190.63;;;7.85;nan
10909;BME280;5507;48.548;8.720;2022-11-18T15:39:37;72184.00;;;7.77;nan
10909;BME280;5507;48.548;8.720;2022-11-18T15:42:02;72169.81;;;7.69;nan
10909;BME280;5507;48.548;8.720;2022-11-18T15:44:27;72172.91;;;7.67;nan